createdAt,value
2017-04-08T00:01:06.168Z,0
2017-04-08T00:02:16.409Z,0
2017-04-08T00:03:26.026Z,0
2017-04-08T00:04:36.202Z,0
2017-04-08T00:05:46.154Z,0
2017-04-08T00:06:56.083Z,0
2017-04-08T00:08:05.701Z,0
2017-04-08T00:09:15.934Z,0
2017-04-08T00:10:26.106Z,0
2017-04-08T00:11:36.350Z,0
2017-04-08T00:12:45.667Z,0
2017-04-08T00:13:55.907Z,0
2017-04-08T00:15:05.844Z,0
2017-04-08T00:16:15.814Z,0
2017-04-08T00:17:26.057Z,0
2017-04-08T00:18:35.683Z,0
2017-04-08T00:19:45.604Z,0
2017-04-08T00:20:55.521Z,0
2017-04-08T00:22:05.213Z,0
2017-04-08T00:23:15.439Z,0
2017-04-08T00:24:25.055Z,0
2017-04-08T00:25:35.299Z,0
2017-04-08T00:26:44.935Z,0
2017-04-08T00:27:54.566Z,0
2017-04-08T00:29:04.502Z,0
2017-04-08T00:30:14.136Z,0
2017-04-08T00:31:24.071Z,0
2017-04-08T00:32:33.713Z,0
2017-04-08T00:33:43.680Z,0
2017-04-08T00:34:53.628Z,0
2017-04-08T00:36:03.905Z,0
2017-04-08T00:37:14.208Z,0
2017-04-08T00:38:23.827Z,0
2017-04-08T00:39:33.998Z,0
2017-04-08T00:40:44.228Z,0
2017-04-08T00:41:53.851Z,0
2017-04-08T00:43:03.474Z,0
2017-04-08T00:44:13.419Z,0
2017-04-08T00:45:23.704Z,0
2017-04-08T00:46:33.948Z,0
2017-04-08T00:47:43.353Z,0
2017-04-08T00:48:52.991Z,0
2017-04-08T00:50:03.226Z,0
2017-04-08T00:51:13.726Z,0
2017-04-08T00:52:23.995Z,0
2017-04-08T00:53:33.933Z,0
2017-04-08T00:54:43.893Z,0
2017-04-08T00:55:53.825Z,0
2017-04-08T00:57:04.184Z,0
2017-04-08T00:58:14.143Z,0
2017-04-08T00:59:24.103Z,0
2017-04-08T01:00:34.353Z,0
2017-04-08T01:01:44.291Z,0
2017-04-08T01:02:54.496Z,0
2017-04-08T01:04:04.434Z,0
2017-04-08T01:05:14.387Z,0
2017-04-08T01:06:24.010Z,0
2017-04-08T01:07:34.251Z,0
2017-04-08T01:08:44.423Z,0
2017-04-08T01:09:54.044Z,0
2017-04-08T01:11:03.970Z,0
2017-04-08T01:12:14.192Z,0
2017-04-08T01:13:23.823Z,0
2017-04-08T01:14:33.281Z,0
2017-04-08T01:15:43.506Z,0
2017-04-08T01:16:53.769Z,0
2017-04-08T01:18:03.378Z,0
2017-04-08T01:19:13.011Z,0
2017-04-08T01:20:23.418Z,0
2017-04-08T01:21:33.075Z,0
2017-04-08T01:22:42.707Z,0
2017-04-08T01:23:52.950Z,0
2017-04-08T01:25:02.893Z,0
2017-04-08T01:26:12.765Z,0
2017-04-08T01:27:22.695Z,0
2017-04-08T01:28:32.933Z,0
2017-04-08T01:29:42.847Z,0
2017-04-08T01:30:52.776Z,0
2017-04-08T01:32:02.747Z,0
2017-04-08T01:33:12.372Z,0
2017-04-08T01:34:54.081Z,0
2017-04-08T01:36:03.705Z,0
2017-04-08T01:37:13.110Z,0
2017-04-08T01:38:22.719Z,0
2017-04-08T01:39:32.328Z,0
2017-04-08T01:40:42.544Z,0
2017-04-08T01:41:52.795Z,0
2017-04-08T01:43:03.182Z,0
2017-04-08T01:44:13.414Z,0
2017-04-08T01:45:23.639Z,0
2017-04-08T01:46:33.570Z,0
2017-04-08T01:47:42.869Z,0
2017-04-08T01:48:52.879Z,0
2017-04-08T01:50:03.118Z,0
2017-04-08T01:51:13.356Z,0
2017-04-08T01:52:22.969Z,0
2017-04-08T01:53:32.896Z,0
2017-04-08T01:54:43.279Z,0
2017-04-08T01:55:53.187Z,0
2017-04-08T01:57:03.105Z,0
2017-04-08T01:58:12.400Z,0
2017-04-08T01:59:22.316Z,0
2017-04-08T02:00:32.637Z,0
2017-04-08T02:01:42.242Z,0
2017-04-08T02:02:52.462Z,0
2017-04-08T02:04:02.366Z,0
2017-04-08T02:05:11.972Z,0
2017-04-08T02:06:22.032Z,0
2017-04-08T02:07:31.630Z,0
2017-04-08T02:08:41.870Z,0
2017-04-08T02:09:52.477Z,0
2017-04-08T02:11:02.083Z,0
2017-04-08T02:12:12.138Z,0
2017-04-08T02:13:21.431Z,0
2017-04-08T02:14:31.029Z,0
2017-04-08T02:15:40.623Z,0
2017-04-08T02:16:49.920Z,0
2017-04-08T02:17:59.987Z,0
2017-04-08T02:19:09.894Z,0
2017-04-08T02:20:19.509Z,0
2017-04-08T02:21:29.445Z,0
2017-04-08T02:22:39.672Z,0
2017-04-08T02:23:50.047Z,0
2017-04-08T02:24:59.968Z,0
2017-04-08T02:26:09.572Z,0
2017-04-08T02:27:19.800Z,0
2017-04-08T02:28:30.026Z,0
2017-04-08T02:29:40.105Z,0
2017-04-08T02:30:50.332Z,0
2017-04-08T02:32:00.248Z,0
2017-04-08T02:33:10.462Z,0
2017-04-08T02:34:20.074Z,0
2017-04-08T02:35:30.279Z,0
2017-04-08T02:36:40.199Z,0
2017-04-08T02:37:49.502Z,0
2017-04-08T02:38:59.413Z,0
2017-04-08T02:40:09.646Z,0
2017-04-08T02:41:19.594Z,0
2017-04-08T02:42:29.493Z,0
2017-04-08T02:43:39.709Z,0
2017-04-08T02:44:49.624Z,0
2017-04-08T02:45:59.544Z,0
2017-04-08T02:47:10.015Z,0
2017-04-08T02:48:19.957Z,0
2017-04-08T02:49:29.886Z,0
2017-04-08T02:50:39.797Z,0
2017-04-08T02:51:49.738Z,0
2017-04-08T02:52:59.819Z,0
2017-04-08T02:54:09.735Z,0
2017-04-08T02:55:19.943Z,0
2017-04-08T02:56:29.553Z,0
2017-04-08T02:57:39.778Z,0
2017-04-08T02:58:49.828Z,0
2017-04-08T02:59:59.738Z,0
2017-04-08T03:01:09.640Z,0
2017-04-08T03:02:19.907Z,0
2017-04-08T03:03:30.121Z,0
2017-04-08T03:04:40.279Z,0
2017-04-08T03:05:49.872Z,0
2017-04-08T03:07:00.115Z,0
2017-04-08T03:08:10.344Z,0
2017-04-08T03:09:19.956Z,0
2017-04-08T03:10:30.182Z,0
2017-04-08T03:11:40.094Z,0
2017-04-08T03:12:49.720Z,0
2017-04-08T03:13:59.933Z,0
2017-04-08T03:15:09.839Z,0
2017-04-08T03:16:20.496Z,0
2017-04-08T03:17:30.720Z,0
2017-04-08T03:18:40.952Z,0
2017-04-08T03:19:50.565Z,0
2017-04-08T03:21:00.487Z,0
2017-04-08T03:22:10.563Z,0
2017-04-08T03:23:20.170Z,0
2017-04-08T03:24:30.100Z,0
2017-04-08T03:25:40.326Z,0
2017-04-08T03:26:50.550Z,0
2017-04-08T03:28:00.732Z,0
2017-04-08T03:29:10.947Z,0
2017-04-08T03:30:21.159Z,0
2017-04-08T03:31:31.382Z,0
2017-04-08T03:32:41.598Z,0
2017-04-08T03:33:51.990Z,0
2017-04-08T03:35:02.232Z,0
2017-04-08T03:36:12.458Z,0
2017-04-08T03:37:22.377Z,0
2017-04-08T03:38:32.299Z,0
2017-04-08T03:39:42.358Z,0
2017-04-08T03:40:52.590Z,0
2017-04-08T03:42:02.810Z,0
2017-04-08T03:43:12.726Z,0
2017-04-08T03:44:22.636Z,0
2017-04-08T03:45:33.005Z,0
2017-04-08T03:46:42.610Z,0
2017-04-08T03:47:52.527Z,0
2017-04-08T03:49:02.738Z,0
2017-04-08T03:50:12.656Z,0
2017-04-08T03:51:22.925Z,0
2017-04-08T03:52:32.840Z,0
2017-04-08T03:53:42.765Z,0
2017-04-08T03:54:52.696Z,0
2017-04-08T03:56:02.657Z,0
2017-04-08T03:57:12.701Z,0
2017-04-08T03:58:22.925Z,0
2017-04-08T03:59:33.158Z,0
2017-04-08T04:00:43.090Z,0
2017-04-08T04:01:53.340Z,0
2017-04-08T04:03:03.855Z,0
2017-04-08T04:04:14.088Z,0
2017-04-08T04:05:24.311Z,0
2017-04-08T04:06:34.533Z,0
2017-04-08T04:07:44.450Z,0
2017-04-08T04:08:54.913Z,0
2017-04-08T04:10:05.152Z,0
2017-04-08T04:11:15.385Z,0
2017-04-08T04:12:25.609Z,0
2017-04-08T04:13:35.826Z,0
2017-04-08T04:14:46.050Z,0
2017-04-08T04:15:56.263Z,0
2017-04-08T04:17:05.871Z,0
2017-04-08T04:18:16.110Z,0
2017-04-08T04:19:25.713Z,0
2017-04-08T04:20:36.681Z,0
2017-04-08T04:21:46.287Z,0
2017-04-08T04:22:55.623Z,0
2017-04-08T04:24:05.562Z,0
2017-04-08T04:25:15.477Z,0
2017-04-08T04:26:25.870Z,0
2017-04-08T04:27:35.787Z,0
2017-04-08T04:28:45.722Z,0
2017-04-08T04:29:55.966Z,0
2017-04-08T04:31:05.583Z,0
2017-04-08T04:32:15.536Z,0
2017-04-08T04:33:25.148Z,0
2017-04-08T04:34:35.065Z,0
2017-04-08T04:35:44.354Z,0
2017-04-08T04:36:53.984Z,4
2017-04-08T04:38:04.156Z,4
2017-04-08T04:39:13.766Z,4
2017-04-08T04:40:23.680Z,4
2017-04-08T04:41:33.287Z,4
2017-04-08T04:42:43.206Z,8
2017-04-08T04:43:53.562Z,4
2017-04-08T04:45:03.201Z,8
2017-04-08T04:46:13.424Z,8
2017-04-08T04:47:23.035Z,12
2017-04-08T04:48:32.653Z,12
2017-04-08T04:49:42.504Z,12
2017-04-08T04:50:52.731Z,16
2017-04-08T04:52:02.953Z,20
2017-04-08T04:53:12.874Z,24
2017-04-08T04:54:22.184Z,24
2017-04-08T04:55:32.047Z,28
2017-04-08T04:56:41.952Z,28
2017-04-08T04:57:51.558Z,28
2017-04-08T04:59:01.485Z,32
2017-04-08T05:00:11.394Z,36
2017-04-08T05:01:22.615Z,40
2017-04-08T05:02:32.223Z,48
2017-04-08T05:03:42.457Z,52
2017-04-08T05:04:52.688Z,56
2017-04-08T05:06:02.604Z,60
2017-04-08T05:07:12.967Z,64
2017-04-08T05:08:22.576Z,68
2017-04-08T05:09:32.194Z,72
2017-04-08T05:10:42.104Z,76
2017-04-08T05:11:52.024Z,80
2017-04-08T05:13:01.984Z,84
2017-04-08T05:14:12.210Z,92
2017-04-08T05:15:21.506Z,100
2017-04-08T05:16:31.113Z,104
2017-04-08T05:17:40.714Z,112
2017-04-08T05:18:50.880Z,112
2017-04-08T05:20:01.120Z,120
2017-04-08T05:21:11.043Z,132
2017-04-08T05:22:21.267Z,132
2017-04-08T05:23:31.485Z,132
2017-04-08T05:24:41.260Z,140
2017-04-08T05:25:50.885Z,148
2017-04-08T05:27:00.855Z,156
2017-04-08T05:28:10.498Z,164
2017-04-08T05:29:20.750Z,168
2017-04-08T05:30:31.085Z,172
2017-04-08T05:31:41.011Z,172
2017-04-08T05:32:50.651Z,172
2017-04-08T05:34:00.883Z,172
2017-04-08T05:35:10.193Z,180
2017-04-08T05:36:20.266Z,192
2017-04-08T05:37:30.486Z,200
2017-04-08T05:38:40.414Z,208
2017-04-08T05:39:50.027Z,200
2017-04-08T05:40:59.944Z,200
2017-04-08T05:42:10.108Z,212
2017-04-08T05:43:20.084Z,228
2017-04-08T05:44:30.321Z,232
2017-04-08T05:45:39.918Z,236
2017-04-08T05:46:50.136Z,236
2017-04-08T05:48:00.515Z,236
2017-04-08T05:49:09.817Z,244
2017-04-08T05:50:19.745Z,248
2017-04-08T05:51:29.379Z,260
2017-04-08T05:52:39.607Z,276
2017-04-08T05:53:49.533Z,284
2017-04-08T05:54:59.770Z,296
2017-04-08T05:56:09.691Z,312
2017-04-08T05:57:19.308Z,328
2017-04-08T05:58:29.235Z,340
2017-04-08T05:59:39.245Z,356
2017-04-08T06:00:49.156Z,380
2017-04-08T06:01:59.366Z,388
2017-04-08T06:03:09.288Z,408
2017-04-08T06:04:18.897Z,420
2017-04-08T06:05:29.227Z,424
2017-04-08T06:06:39.148Z,436
2017-04-08T06:07:48.763Z,456
2017-04-08T06:08:58.709Z,476
2017-04-08T06:10:08.947Z,504
2017-04-08T06:11:19.425Z,536
2017-04-08T06:12:29.338Z,572
2017-04-08T06:13:39.257Z,596
2017-04-08T06:14:48.868Z,592
2017-04-08T06:15:59.094Z,584
2017-04-08T06:17:09.055Z,520
2017-04-08T06:18:19.288Z,520
2017-04-08T06:19:29.204Z,648
2017-04-08T06:20:39.430Z,708
2017-04-08T06:21:49.659Z,724
2017-04-08T06:22:59.414Z,712
2017-04-08T06:24:09.335Z,688
2017-04-08T06:25:19.252Z,668
2017-04-08T06:26:28.858Z,660
2017-04-08T06:27:38.784Z,656
2017-04-08T06:28:49.337Z,660
2017-04-08T06:29:58.951Z,652
2017-04-08T06:31:08.890Z,644
2017-04-08T06:32:18.808Z,640
2017-04-08T06:33:28.737Z,644
2017-04-08T06:34:38.642Z,668
2017-04-08T06:35:48.886Z,708
2017-04-08T06:36:58.199Z,756
2017-04-08T06:38:08.445Z,800
2017-04-08T06:39:18.672Z,828
2017-04-08T06:40:28.955Z,868
2017-04-08T06:41:39.192Z,892
2017-04-08T06:42:49.161Z,908
2017-04-08T06:43:59.080Z,932
2017-04-08T06:45:08.691Z,960
2017-04-08T06:46:19.016Z,992
2017-04-08T06:47:29.247Z,1020
2017-04-08T06:48:39.556Z,1016
2017-04-08T06:49:49.493Z,1028
2017-04-08T06:50:59.105Z,1036
2017-04-08T06:52:09.400Z,1032
2017-04-08T06:53:19.630Z,1060
2017-04-08T06:54:29.237Z,1124
2017-04-08T06:55:39.454Z,1184
2017-04-08T06:56:49.065Z,1208
2017-04-08T06:57:58.764Z,1240
2017-04-08T06:59:08.695Z,1252
2017-04-08T07:00:18.931Z,1228
2017-04-08T07:01:29.073Z,1244
2017-04-08T07:02:38.766Z,1288
2017-04-08T07:03:49.337Z,1372
2017-04-08T07:04:59.592Z,1436
2017-04-08T07:06:09.517Z,1456
2017-04-08T07:07:19.419Z,1492
2017-04-08T07:08:29.740Z,1556
2017-04-08T07:09:39.933Z,1540
2017-04-08T07:10:50.441Z,1540
2017-04-08T07:12:00.358Z,1548
2017-04-08T07:13:10.280Z,1488
2017-04-08T07:14:19.973Z,1488
2017-04-08T07:15:29.074Z,1532
2017-04-08T07:16:38.989Z,1576
2017-04-08T07:17:48.895Z,1620
2017-04-08T07:18:58.513Z,1632
2017-04-08T07:20:08.126Z,1628
2017-04-08T07:21:17.538Z,1660
2017-04-08T07:22:27.892Z,1632
2017-04-08T07:23:38.146Z,1568
2017-04-08T07:24:47.785Z,1500
2017-04-08T07:25:58.037Z,1452
2017-04-08T07:27:08.418Z,1424
2017-04-08T07:28:18.662Z,1404
2017-04-08T07:29:28.898Z,1388
2017-04-08T07:30:39.119Z,1376
2017-04-08T07:31:49.040Z,1380
2017-04-08T07:32:59.051Z,1432
2017-04-08T07:34:08.976Z,1468
2017-04-08T07:35:18.894Z,1496
2017-04-08T07:36:28.798Z,1544
2017-04-08T07:37:38.720Z,1580
2017-04-08T07:38:48.368Z,1636
2017-04-08T07:39:57.975Z,1684
2017-04-08T07:41:07.892Z,1740
2017-04-08T07:42:17.803Z,1784
2017-04-08T07:43:27.412Z,1780
2017-04-08T07:44:38.338Z,1764
2017-04-08T07:45:48.276Z,1772
2017-04-08T07:46:57.947Z,1784
2017-04-08T07:48:08.247Z,1816
2017-04-08T07:49:17.847Z,1864
2017-04-08T07:50:28.410Z,1876
2017-04-08T07:51:38.703Z,1852
2017-04-08T07:52:48.625Z,1780
2017-04-08T07:53:58.540Z,1756
2017-04-08T07:55:08.448Z,1808
2017-04-08T07:56:18.039Z,1880
2017-04-08T07:57:27.960Z,1896
2017-04-08T07:58:37.902Z,1892
2017-04-08T07:59:48.131Z,1908
2017-04-08T08:00:58.046Z,1936
2017-04-08T08:02:08.117Z,1976
2017-04-08T08:03:18.038Z,2068
2017-04-08T08:04:28.288Z,2180
2017-04-08T08:05:38.230Z,2240
2017-04-08T08:06:48.169Z,2236
2017-04-08T08:07:58.654Z,2184
2017-04-08T08:09:08.882Z,2136
2017-04-08T08:10:18.805Z,2112
2017-04-08T08:11:28.723Z,2112
2017-04-08T08:12:38.943Z,2176
2017-04-08T08:13:48.588Z,2260
2017-04-08T08:14:58.807Z,2300
2017-04-08T08:16:09.017Z,2244
2017-04-08T08:17:19.231Z,2156
2017-04-08T08:18:29.448Z,2092
2017-04-08T08:19:40.075Z,2048
2017-04-08T08:20:50.557Z,2024
2017-04-08T08:22:00.159Z,2024
2017-04-08T08:23:09.141Z,2048
2017-04-08T08:24:19.063Z,2088
2017-04-08T08:25:29.594Z,2100
2017-04-08T08:26:38.889Z,2100
2017-04-08T08:27:48.493Z,2104
2017-04-08T08:28:58.714Z,2184
2017-04-08T08:30:08.947Z,2336
2017-04-08T08:31:18.890Z,2504
2017-04-08T08:32:28.794Z,2632
2017-04-08T08:33:38.736Z,2724
2017-04-08T08:34:48.360Z,2800
2017-04-08T08:35:58.603Z,2888
2017-04-08T08:37:08.161Z,2952
2017-04-08T08:38:18.347Z,2984
2017-04-08T08:39:27.970Z,2972
2017-04-08T08:40:37.911Z,3012
2017-04-08T08:41:47.521Z,3092
2017-04-08T08:42:57.749Z,3188
2017-04-08T08:44:07.693Z,3248
2017-04-08T08:45:17.309Z,3184
2017-04-08T08:46:27.233Z,3108
2017-04-08T08:47:37.485Z,3208
2017-04-08T08:48:47.851Z,3384
2017-04-08T08:49:57.781Z,3484
2017-04-08T08:51:07.693Z,3780
2017-04-08T08:52:17.307Z,3948
2017-04-08T08:53:27.225Z,3908
2017-04-08T08:54:37.592Z,3784
2017-04-08T08:55:47.203Z,3852
2017-04-08T08:56:57.435Z,3856
2017-04-08T08:58:07.375Z,3676
2017-04-08T08:59:17.294Z,3364
2017-04-08T09:00:27.828Z,3220
2017-04-08T09:01:38.077Z,3172
2017-04-08T09:02:48.305Z,3064
2017-04-08T09:03:58.259Z,3260
2017-04-08T09:05:07.981Z,3876
2017-04-08T09:06:18.475Z,4372
2017-04-08T09:07:28.402Z,4396
2017-04-08T09:08:37.793Z,4156
2017-04-08T09:09:47.112Z,4084
2017-04-08T09:10:57.033Z,4152
2017-04-08T09:12:07.213Z,4096
2017-04-08T09:13:17.122Z,4136
2017-04-08T09:14:26.433Z,4308
2017-04-08T09:15:36.356Z,4316
2017-04-08T09:16:46.618Z,4096
2017-04-08T09:17:56.713Z,3876
2017-04-08T09:19:06.649Z,3844
2017-04-08T09:20:16.601Z,3784
2017-04-08T09:21:26.245Z,3884
2017-04-08T09:22:36.478Z,3872
2017-04-08T09:23:46.741Z,3692
2017-04-08T09:24:56.678Z,3472
2017-04-08T09:26:06.004Z,3360
2017-04-08T09:27:16.238Z,3208
2017-04-08T09:28:26.463Z,3092
2017-04-08T09:29:36.427Z,3008
2017-04-08T09:30:46.039Z,2968
2017-04-08T09:31:55.964Z,2888
2017-04-08T09:33:05.268Z,2624
2017-04-08T09:34:14.878Z,2428
2017-04-08T09:35:25.113Z,2400
2017-04-08T09:36:35.064Z,2680
2017-04-08T09:37:44.369Z,2996
2017-04-08T09:38:53.998Z,3176
2017-04-08T09:40:03.939Z,3216
2017-04-08T09:41:13.821Z,3268
2017-04-08T09:42:24.093Z,3248
2017-04-08T09:43:34.338Z,3192
2017-04-08T09:44:44.319Z,3136
2017-04-08T09:45:54.243Z,3052
2017-04-08T09:47:04.268Z,2988
2017-04-08T09:48:13.597Z,2912
2017-04-08T09:49:23.827Z,2868
2017-04-08T09:50:34.058Z,2880
2017-04-08T09:51:43.713Z,2944
2017-04-08T09:52:54.314Z,2976
2017-04-08T09:54:04.599Z,3084
2017-04-08T09:55:14.531Z,3108
2017-04-08T09:56:24.748Z,3024
2017-04-08T09:57:34.971Z,2892
2017-04-08T09:58:45.396Z,2640
2017-04-08T09:59:55.356Z,2512
2017-04-08T10:01:05.299Z,2640
2017-04-08T10:02:15.213Z,2880
2017-04-08T10:03:25.155Z,3056
2017-04-08T10:04:35.234Z,3184
2017-04-08T10:05:45.459Z,3208
2017-04-08T10:06:55.680Z,3368
2017-04-08T10:08:05.884Z,3488
2017-04-08T10:09:15.742Z,3628
2017-04-08T10:10:26.009Z,3604
2017-04-08T10:11:36.029Z,3688
2017-04-08T10:12:45.989Z,3716
2017-04-08T10:13:55.596Z,3580
2017-04-08T10:15:05.513Z,3688
2017-04-08T10:16:16.271Z,3648
2017-04-08T10:17:26.520Z,3536
2017-04-08T10:18:36.481Z,3560
2017-04-08T10:19:46.411Z,3592
2017-04-08T10:20:56.054Z,3764
2017-04-08T10:22:05.838Z,3852
2017-04-08T10:23:15.764Z,3940
2017-04-08T10:24:26.032Z,3944
2017-04-08T10:25:36.284Z,4108
2017-04-08T10:26:46.301Z,4076
2017-04-08T10:27:56.625Z,3980
2017-04-08T10:29:06.247Z,3756
2017-04-08T10:30:16.193Z,3588
2017-04-08T10:31:26.119Z,3408
2017-04-08T10:32:35.772Z,3336
2017-04-08T10:33:46.366Z,3400
2017-04-08T10:34:56.280Z,3624
2017-04-08T10:36:06.278Z,3772
2017-04-08T10:37:16.514Z,3856
2017-04-08T10:38:26.725Z,3868
2017-04-08T10:39:36.787Z,3744
2017-04-08T10:40:47.012Z,3612
2017-04-08T10:41:56.950Z,3516
2017-04-08T10:43:07.172Z,3436
2017-04-08T10:44:17.441Z,3404
2017-04-08T10:45:27.101Z,3404
2017-04-08T10:46:37.394Z,3420
2017-04-08T10:47:47.620Z,3424
2017-04-08T10:48:57.863Z,3392
2017-04-08T10:50:08.116Z,3376
2017-04-08T10:51:18.028Z,3416
2017-04-08T10:52:27.664Z,3460
2017-04-08T10:53:37.901Z,3520
2017-04-08T10:54:47.830Z,3592
2017-04-08T10:55:58.092Z,3732
2017-04-08T10:57:08.168Z,3848
2017-04-08T10:58:18.396Z,3788
2017-04-08T10:59:28.643Z,3604
2017-04-08T11:00:38.572Z,3524
2017-04-08T11:01:47.580Z,3452
2017-04-08T11:02:58.075Z,3248
2017-04-08T11:04:07.681Z,3124
2017-04-08T11:05:17.352Z,3100
2017-04-08T11:06:27.572Z,2956
2017-04-08T11:07:37.496Z,2796
2017-04-08T11:08:47.253Z,2732
2017-04-08T11:09:56.867Z,2768
2017-04-08T11:11:06.792Z,2792
2017-04-08T11:12:16.733Z,2672
2017-04-08T11:13:26.954Z,2568
2017-04-08T11:14:37.527Z,2528
2017-04-08T11:15:47.482Z,2532
2017-04-08T11:16:57.696Z,2440
2017-04-08T11:18:07.310Z,2340
2017-04-08T11:19:17.255Z,2292
2017-04-08T11:20:27.171Z,2272
2017-04-08T11:21:37.087Z,2268
2017-04-08T11:22:47.027Z,2240
2017-04-08T11:23:56.948Z,2204
2017-04-08T11:25:05.954Z,2148
2017-04-08T11:26:16.130Z,2088
2017-04-08T11:27:26.070Z,2044
2017-04-08T11:28:35.731Z,2012
2017-04-08T11:29:45.684Z,2000
2017-04-08T11:30:55.621Z,1972
2017-04-08T11:32:05.507Z,1928
2017-04-08T11:33:15.444Z,1912
2017-04-08T11:34:25.069Z,1896
2017-04-08T11:35:34.684Z,1880
2017-04-08T11:36:44.007Z,1860
2017-04-08T11:37:54.538Z,1848
2017-04-08T11:39:04.458Z,1832
2017-04-08T11:40:14.092Z,1796
2017-04-08T11:41:23.721Z,1776
2017-04-08T11:42:33.410Z,1756
2017-04-08T11:43:43.594Z,1728
2017-04-08T11:44:53.815Z,1732
2017-04-08T11:46:04.063Z,1728
2017-04-08T11:47:13.982Z,1744
2017-04-08T11:48:23.001Z,1756
2017-04-08T11:49:33.207Z,1780
2017-04-08T11:50:43.167Z,1776
2017-04-08T11:51:52.782Z,1756
2017-04-08T11:53:02.699Z,1776
2017-04-08T11:54:12.302Z,1776
2017-04-08T11:55:22.505Z,1776
2017-04-08T11:56:32.725Z,1748
2017-04-08T11:57:42.653Z,1724
2017-04-08T11:58:52.572Z,1696
2017-04-08T12:00:02.804Z,1680
2017-04-08T12:01:12.725Z,1660
2017-04-08T12:02:22.033Z,1648
2017-04-08T12:03:32.028Z,1640
2017-04-08T12:04:41.933Z,1636
2017-04-08T12:05:51.858Z,1640
2017-04-08T12:07:02.563Z,1648
2017-04-08T12:08:12.277Z,1660
2017-04-08T12:09:22.224Z,1664
2017-04-08T12:10:32.135Z,1672
2017-04-08T12:11:42.291Z,1664
2017-04-08T12:12:52.057Z,1656
2017-04-08T12:14:02.362Z,1656
2017-04-08T12:15:12.579Z,1652
2017-04-08T12:16:22.510Z,1644
2017-04-08T12:17:32.424Z,1628
2017-04-08T12:18:43.053Z,1616
2017-04-08T12:19:53.752Z,1600
2017-04-08T12:21:03.680Z,1584
2017-04-08T12:22:13.913Z,1592
2017-04-08T12:23:23.860Z,1588
2017-04-08T12:24:34.137Z,1576
2017-04-08T12:25:44.058Z,1556
2017-04-08T12:26:53.966Z,1544
2017-04-08T12:28:04.188Z,1552
2017-04-08T12:29:14.411Z,1536
2017-04-08T12:30:24.462Z,1516
2017-04-08T12:31:34.390Z,1500
2017-04-08T12:32:44.293Z,1500
2017-04-08T12:33:54.040Z,1500
2017-04-08T12:35:04.679Z,1500
2017-04-08T12:36:15.365Z,1500
2017-04-08T12:37:25.588Z,1508
2017-04-08T12:38:35.805Z,1500
2017-04-08T12:39:46.041Z,1508
2017-04-08T12:40:56.301Z,1492
2017-04-08T12:42:07.065Z,1496
2017-04-08T12:43:17.044Z,1480
2017-04-08T12:44:27.259Z,1480
2017-04-08T12:45:37.511Z,1484
2017-04-08T12:46:47.120Z,1480
2017-04-08T12:47:57.284Z,1484
2017-04-08T12:49:07.942Z,1480
2017-04-08T12:50:17.659Z,1472
2017-04-08T12:51:28.230Z,1468
2017-04-08T12:52:37.981Z,1476
2017-04-08T12:53:48.213Z,1456
2017-04-08T12:54:57.905Z,1448
2017-04-08T12:56:07.817Z,1436
2017-04-08T12:57:18.049Z,1420
2017-04-08T12:58:27.358Z,1416
2017-04-08T12:59:37.375Z,1424
2017-04-08T13:00:47.000Z,1412
2017-04-08T13:01:56.925Z,1408
2017-04-08T13:03:06.539Z,1404
2017-04-08T13:04:16.459Z,1416
2017-04-08T13:05:26.770Z,1404
2017-04-08T13:06:36.676Z,1408
2017-04-08T13:07:46.618Z,920
2017-04-08T13:08:57.207Z,1392
2017-04-08T13:10:06.518Z,1384
2017-04-08T13:11:16.913Z,1376
2017-04-08T13:12:26.521Z,1368
2017-04-08T13:13:36.458Z,1360
2017-04-08T13:14:46.109Z,1360
2017-04-08T13:15:56.346Z,1360
2017-04-08T13:17:05.799Z,1344
2017-04-08T13:18:15.744Z,1324
2017-04-08T13:19:25.816Z,1328
2017-04-08T13:20:35.769Z,1328
2017-04-08T13:21:46.033Z,1336
2017-04-08T13:22:55.778Z,1340
2017-04-08T13:24:06.045Z,1348
2017-04-08T13:25:16.361Z,1344
2017-04-08T13:26:26.610Z,1332
2017-04-08T13:27:36.229Z,1320
2017-04-08T13:28:46.721Z,1324
2017-04-08T13:29:56.643Z,1324
2017-04-08T13:31:06.564Z,1336
2017-04-08T13:32:16.797Z,1332
2017-04-08T13:33:26.430Z,1340
2017-04-08T13:34:37.491Z,1348
2017-04-08T13:35:47.121Z,1352
2017-04-08T13:36:57.345Z,1356
2017-04-08T13:38:07.280Z,1356
2017-04-08T13:39:16.885Z,1352
2017-04-08T13:40:27.108Z,1356
2017-04-08T13:41:37.354Z,1356
2017-04-08T13:42:46.657Z,1364
2017-04-08T13:43:56.587Z,1372
2017-04-08T13:45:06.800Z,1372
2017-04-08T13:46:17.361Z,1368
2017-04-08T13:47:26.975Z,1368
2017-04-08T13:48:36.601Z,1364
2017-04-08T13:49:46.219Z,1356
2017-04-08T13:50:55.871Z,1356
2017-04-08T13:52:06.362Z,1344
2017-04-08T13:53:15.978Z,1344
2017-04-08T13:54:26.214Z,1348
2017-04-08T13:55:35.881Z,1348
2017-04-08T13:56:44.875Z,1340
2017-04-08T13:57:55.198Z,1336
2017-04-08T13:59:04.822Z,1340
2017-04-08T14:00:14.437Z,1344
2017-04-08T14:01:24.361Z,1340
2017-04-08T14:02:34.025Z,1344
2017-04-08T14:03:44.329Z,1336
2017-04-08T14:04:54.595Z,1336
2017-04-08T14:06:04.533Z,1336
2017-04-08T14:07:14.840Z,1332
2017-04-08T14:08:24.756Z,1332
2017-04-08T14:09:35.248Z,1328
2017-04-08T14:10:45.184Z,1324
2017-04-08T14:11:55.105Z,1328
2017-04-08T14:13:05.026Z,1332
2017-04-08T14:14:15.276Z,1328
2017-04-08T14:15:24.799Z,1332
2017-04-08T14:16:34.485Z,1328
2017-04-08T14:17:43.594Z,1324
2017-04-08T14:18:53.557Z,1316
2017-04-08T14:20:03.527Z,1308
2017-04-08T14:21:13.712Z,1300
2017-04-08T14:22:22.814Z,1292
2017-04-08T14:23:32.745Z,1284
2017-04-08T14:24:42.378Z,1280
2017-04-08T14:25:52.629Z,1280
2017-04-08T14:27:02.708Z,1280
2017-04-08T14:28:12.635Z,1280
2017-04-08T14:29:22.908Z,1268
2017-04-08T14:30:32.516Z,1268
2017-04-08T14:31:42.754Z,1268
2017-04-08T14:32:53.172Z,1260
2017-04-08T14:34:03.651Z,1260
2017-04-08T14:35:13.604Z,1256
2017-04-08T14:36:23.844Z,1248
2017-04-08T14:37:33.802Z,1244
2017-04-08T14:38:44.009Z,1248
2017-04-08T14:39:53.952Z,1252
2017-04-08T14:41:03.597Z,1252
2017-04-08T14:42:13.230Z,1244
2017-04-08T14:43:23.463Z,1240
2017-04-08T14:44:33.986Z,1240
2017-04-08T14:45:44.036Z,1236
2017-04-08T14:46:53.987Z,1228
2017-04-08T14:48:03.640Z,1224
2017-04-08T14:49:13.572Z,1220
2017-04-08T14:50:23.833Z,1216
2017-04-08T14:51:33.485Z,1212
2017-04-08T14:52:43.421Z,1216
2017-04-08T14:53:53.653Z,1212
2017-04-08T14:55:03.584Z,1208
2017-04-08T14:56:13.844Z,1212
2017-04-08T14:57:23.775Z,1212
2017-04-08T14:58:33.699Z,1204
2017-04-08T14:59:43.380Z,1196
2017-04-08T15:00:53.304Z,1188
2017-04-08T15:02:03.726Z,1184
2017-04-08T15:03:13.366Z,1180
2017-04-08T15:04:23.018Z,1176
2017-04-08T15:05:32.638Z,1176
2017-04-08T15:06:42.553Z,1168
2017-04-08T15:07:53.362Z,1164
2017-04-08T15:09:02.984Z,1160
2017-04-08T15:10:12.913Z,1156
2017-04-08T15:11:22.524Z,1152
2017-04-08T15:12:32.456Z,1140
2017-04-08T15:13:42.342Z,1132
2017-04-08T15:14:52.600Z,1124
2017-04-08T15:16:02.529Z,1116
2017-04-08T15:17:12.491Z,1120
2017-04-08T15:18:22.712Z,1116
2017-04-08T15:19:33.302Z,1104
2017-04-08T15:20:43.525Z,1096
2017-04-08T15:21:53.140Z,1096
2017-04-08T15:23:02.757Z,1096
2017-04-08T15:24:13.014Z,1096
2017-04-08T15:25:23.166Z,1096
2017-04-08T15:26:32.479Z,1092
2017-04-08T15:27:42.714Z,1088
2017-04-08T15:28:52.986Z,1084
2017-04-08T15:30:02.608Z,1080
2017-04-08T15:31:12.833Z,1072
2017-04-08T15:32:23.070Z,1068
2017-04-08T15:33:32.991Z,1068
2017-04-08T15:34:43.249Z,1064
2017-04-08T15:35:53.169Z,1060
2017-04-08T15:37:03.919Z,1052
2017-04-08T15:38:14.178Z,1048
2017-04-08T15:39:24.140Z,1040
2017-04-08T15:40:34.370Z,1032
2017-04-08T15:41:44.643Z,1028
2017-04-08T15:42:54.914Z,1024
2017-04-08T15:44:04.223Z,1020
2017-04-08T15:45:14.486Z,1020
2017-04-08T15:46:24.720Z,1020
2017-04-08T15:47:34.657Z,1016
2017-04-08T15:48:44.713Z,1012
2017-04-08T15:49:54.945Z,1012
2017-04-08T15:51:05.600Z,1008
2017-04-08T15:52:15.568Z,1008
2017-04-08T15:53:25.480Z,1000
2017-04-08T15:54:35.408Z,996
2017-04-08T15:55:45.639Z,992
2017-04-08T15:56:55.250Z,988
2017-04-08T15:58:05.524Z,980
2017-04-08T15:59:15.136Z,972
2017-04-08T16:00:25.669Z,968
2017-04-08T16:01:35.906Z,964
2017-04-08T16:02:45.526Z,960
2017-04-08T16:03:55.763Z,956
2017-04-08T16:05:05.703Z,948
2017-04-08T16:06:15.783Z,940